Time;durP1;ratioP1;P1;durP2;ratioP2;P2;SDS_P1;SDS_P2;PMS_P1;PMS_P2;Temp;Humidity;BMP_temperature;BMP_pressure;BME280_temperature;BME280_humidity;BME280_pressure;Samples;Min_cycle;Max_cycle;Signal;HPM_P1;HPM_P2
2022/12/21 00:01:47;;;;;;;122.50;24.98;;;7.40;99.90;;;;;;5017008;28;20056;-60
2022/12/21 00:04:13;;;;;;;90.00;22.40;;;7.40;99.90;;;;;;5032170;28;20054;-59
2022/12/21 00:06:39;;;;;;;87.57;22.10;;;7.30;99.90;;;;;;5022825;28;20068;-59
2022/12/21 00:09:09;;;;;;;168.98;24.67;;;7.30;99.90;;;;;;5043547;28;20959;-60
2022/12/21 00:11:35;;;;;;;257.58;28.90;;;7.30;99.90;;;;;;5042332;28;20132;-59
2022/12/21 00:14:03;;;;;;;192.68;21.70;;;7.30;99.90;;;;;;5040621;28;20164;-60
2022/12/21 00:16:31;;;;;;;308.20;31.50;;;7.20;99.90;;;;;;5043574;28;20045;-60
2022/12/21 00:18:58;;;;;;;263.58;25.13;;;7.20;99.90;;;;;;5021288;28;20139;-60
2022/12/21 00:21:26;;;;;;;336.13;27.15;;;7.10;99.90;;;;;;5040415;28;20534;-60
2022/12/21 00:23:54;;;;;;;236.45;23.33;;;7.10;99.90;;;;;;5041624;28;20045;-59
2022/12/21 00:26:22;;;;;;;329.05;26.13;;;7.10;99.90;;;;;;5022727;28;21251;-59
2022/12/21 00:28:50;;;;;;;175.73;23.60;;;7.00;99.90;;;;;;5043222;28;20052;-59
2022/12/21 00:31:18;;;;;;;173.38;22.75;;;7.00;99.90;;;;;;5043889;28;20049;-59
2022/12/21 00:33:46;;;;;;;244.75;24.17;;;6.90;99.90;;;;;;5042175;28;20471;-59
2022/12/21 00:36:14;;;;;;;242.32;21.65;;;6.90;99.90;;;;;;5015498;28;20376;-59
2022/12/21 00:38:41;;;;;;;152.88;20.70;;;6.90;99.90;;;;;;5042941;28;20171;-59
2022/12/21 00:41:10;;;;;;;146.15;22.50;;;6.90;99.90;;;;;;5038088;28;20122;-60
2022/12/21 00:43:37;;;;;;;250.68;22.88;;;6.90;99.90;;;;;;5019763;28;20114;-59
2022/12/21 00:46:04;;;;;;;204.77;23.95;;;6.90;99.90;;;;;;5038217;28;20505;-59
2022/12/21 00:48:30;;;;;;;266.05;27.27;;;6.90;99.90;;;;;;5037487;28;20049;-59
2022/12/21 00:51:04;;;;;;;76.85;20.13;;;6.90;99.90;;;;;;5027195;28;24517;-60
2022/12/21 00:53:30;;;;;;;324.00;28.10;;;6.90;99.90;;;;;;5037554;28;20049;-59
2022/12/21 00:55:58;;;;;;;226.05;26.27;;;6.90;99.90;;;;;;5040671;28;20403;-59
2022/12/21 00:58:25;;;;;;;329.15;30.92;;;6.90;99.90;;;;;;5037461;28;20076;-59
2022/12/21 01:00:56;;;;;;;125.25;22.25;;;6.90;99.90;;;;;;5014834;28;20075;-59
2022/12/21 01:03:23;;;;;;;150.70;21.77;;;6.90;99.90;;;;;;5035923;28;20122;-59
2022/12/21 01:05:50;;;;;;;262.02;26.92;;;6.90;99.90;;;;;;5038785;28;20048;-59
2022/12/21 01:08:18;;;;;;;236.75;27.42;;;6.90;99.90;;;;;;5018049;28;20052;-60
2022/12/21 01:10:44;;;;;;;159.38;23.10;;;6.90;99.90;;;;;;5018092;28;20112;-59
2022/12/21 01:13:11;;;;;;;62.15;20.67;;;6.90;99.90;;;;;;5011452;28;20578;-59
2022/12/21 01:15:41;;;;;;;175.68;25.55;;;6.90;99.90;;;;;;4993312;28;20045;-60
2022/12/21 01:18:08;;;;;;;173.35;26.15;;;6.90;99.90;;;;;;5020533;28;20530;-60
2022/12/21 01:20:38;;;;;;;227.40;26.75;;;6.90;99.90;;;;;;5013882;28;20042;-59
2022/12/21 01:23:03;;;;;;;181.48;24.48;;;6.90;99.90;;;;;;5011624;28;20046;-59
2022/12/21 01:25:30;;;;;;;121.60;22.77;;;6.90;99.90;;;;;;5021241;28;20048;-59
2022/12/21 01:27:56;;;;;;;165.55;24.63;;;6.80;99.90;;;;;;5017562;28;20120;-59
2022/12/21 01:30:22;;;;;;;234.35;25.92;;;6.90;99.90;;;;;;5018850;28;20041;-59
2022/12/21 01:32:48;;;;;;;141.95;22.73;;;6.80;99.90;;;;;;5023230;28;20049;-58
2022/12/21 01:35:14;;;;;;;147.50;21.73;;;6.80;99.90;;;;;;5017667;28;20080;-59
2022/12/21 01:37:40;;;;;;;163.73;23.10;;;6.80;99.90;;;;;;5017714;28;20050;-58
2022/12/21 01:40:06;;;;;;;160.70;22.48;;;6.80;99.90;;;;;;5019518;28;20049;-59
2022/12/21 01:42:32;;;;;;;153.15;19.25;;;6.70;99.90;;;;;;5017804;28;20526;-58
2022/12/21 01:45:02;;;;;;;178.70;22.40;;;6.70;99.90;;;;;;5019701;28;20065;-60
2022/12/21 01:47:58;;;;;;;69.78;17.92;;;6.70;99.90;;;;;;5018749;28;20056;-58
2022/12/21 01:50:43;;;;;;;105.20;19.90;;;6.60;99.90;;;;;;5017650;28;20054;-58
2022/12/21 01:53:30;;;;;;;111.47;20.75;;;6.60;99.90;;;;;;5012381;28;20054;-59
2022/12/21 01:55:59;;;;;;;162.13;20.00;;;6.60;99.90;;;;;;5018435;28;20064;-59
2022/12/21 01:58:28;;;;;;;90.07;18.73;;;6.50;99.90;;;;;;5021206;28;20045;-59
2022/12/21 02:00:56;;;;;;;130.60;19.23;;;6.50;99.90;;;;;;5008853;28;20623;-60
2022/12/21 02:03:25;;;;;;;106.50;17.17;;;6.50;99.90;;;;;;5005727;28;20037;-59
2022/12/21 02:06:22;;;;;;;87.47;16.05;;;6.50;99.90;;;;;;5019087;28;20096;-60
2022/12/21 02:08:48;;;;;;;167.15;21.27;;;6.40;99.90;;;;;;5022256;28;20049;-59
2022/12/21 02:11:15;;;;;;;209.15;23.65;;;6.40;99.90;;;;;;5023640;28;20549;-59
2022/12/21 02:13:41;;;;;;;204.65;19.83;;;6.40;99.90;;;;;;5024848;28;20041;-59
2022/12/21 02:16:16;;;;;;;272.02;22.15;;;6.40;99.90;;;;;;5016564;28;20174;-60
2022/12/21 02:19:08;;;;;;;181.70;19.50;;;6.40;99.90;;;;;;5043614;28;20040;-60
2022/12/21 02:21:53;;;;;;;169.80;19.33;;;6.30;99.90;;;;;;5038162;28;20405;-58
2022/12/21 02:24:40;;;;;;;89.47;18.85;;;6.30;99.90;;;;;;5041339;28;20048;-59
2022/12/21 02:27:41;;;;;;;126.38;20.40;;;6.30;99.90;;;;;;5011013;28;20487;-60
2022/12/21 02:30:15;;;;;;;250.13;23.95;;;6.30;99.90;;;;;;5042531;28;20071;-60
2022/12/21 02:32:50;;;;;;;189.25;20.98;;;6.30;99.90;;;;;;5045994;28;20131;-59
2022/12/21 02:35:47;;;;;;;200.68;20.65;;;6.30;99.90;;;;;;5042924;28;20052;-60
2022/12/21 02:38:35;;;;;;;230.57;24.80;;;6.30;99.90;;;;;;5026451;28;20045;-60
2022/12/21 02:41:17;;;;;;;106.03;19.95;;;6.30;99.90;;;;;;5039446;28;20041;-59
2022/12/21 02:44:14;;;;;;;108.55;18.75;;;6.30;99.90;;;;;;5037997;28;20041;-60
2022/12/21 02:46:55;;;;;;;170.65;21.40;;;6.30;99.90;;;;;;5039080;28;20041;-59
2022/12/21 02:49:28;;;;;;;125.85;18.92;;;6.30;99.90;;;;;;5038506;28;20037;-59
2022/12/21 02:51:59;;;;;;;99.63;19.35;;;6.30;99.90;;;;;;5034773;28;20045;-59
2022/12/21 02:54:25;;;;;;;198.50;21.13;;;6.30;99.90;;;;;;5036157;28;20500;-59
2022/12/21 02:56:51;;;;;;;72.85;17.60;;;6.20;99.90;;;;;;5041992;28;20175;-60
2022/12/21 02:59:19;;;;;;;109.78;19.30;;;6.20;99.90;;;;;;5037526;28;20045;-59
2022/12/21 03:02:06;;;;;;;134.85;17.73;;;6.20;99.90;;;;;;5037055;28;20053;-60
2022/12/21 03:04:57;;;;;;;172.77;20.40;;;6.20;99.90;;;;;;5034349;28;20080;-58
2022/12/21 03:07:31;;;;;;;195.45;22.58;;;6.20;99.90;;;;;;5034652;28;20056;-59
2022/12/21 03:10:18;;;;;;;107.78;20.30;;;6.10;99.90;;;;;;5022767;28;20084;-59
2022/12/21 03:12:52;;;;;;;95.13;19.48;;;6.10;99.90;;;;;;5011718;28;20048;-60
2022/12/21 03:15:42;;;;;;;60.58;17.27;;;6.10;99.90;;;;;;5029968;28;20113;-59
2022/12/21 03:18:37;;;;;;;122.10;15.90;;;6.10;99.90;;;;;;5030109;28;20052;-59
2022/12/21 03:21:13;;;;;;;165.30;14.75;;;6.10;99.90;;;;;;5026089;28;20052;-60
2022/12/21 03:23:46;;;;;;;133.30;15.98;;;6.10;99.90;;;;;;5011273;28;22523;-60
2022/12/21 03:26:29;;;;;;;225.18;16.40;;;6.10;99.90;;;;;;5030326;28;20202;-59
2022/12/21 03:28:57;;;;;;;;;;;6.10;99.90;;;;;;5036953;28;20053;-59
2022/12/21 03:31:27;;;;;;;176.45;15.63;;;6.00;99.90;;;;;;5038691;28;19960;-59
2022/12/21 03:34:07;;;;;;;129.35;15.50;;;6.00;99.90;;;;;;5033832;28;20057;-59
2022/12/21 03:36:42;;;;;;;159.98;15.15;;;6.00;99.90;;;;;;5038879;28;20118;-59
2022/12/21 03:39:12;;;;;;;229.95;17.42;;;6.00;99.90;;;;;;5038470;28;20539;-58
2022/12/21 03:41:51;;;;;;;137.88;16.25;;;6.00;99.90;;;;;;5037109;28;20053;-59
2022/12/21 03:44:22;;;;;;;127.78;14.10;;;5.90;99.90;;;;;;5020611;28;20138;-59
2022/12/21 03:46:55;;;;;;;130.80;14.45;;;5.90;99.90;;;;;;5037190;28;20050;-59
2022/12/21 03:49:29;;;;;;;177.10;14.05;;;5.90;99.90;;;;;;5037923;28;20468;-59
2022/12/21 03:52:01;;;;;;;125.72;13.82;;;5.90;99.90;;;;;;5038288;28;20049;-59
2022/12/21 03:54:48;;;;;;;131.45;13.63;;;5.80;99.90;;;;;;5035201;28;20109;-60
2022/12/21 03:57:15;;;;;;;180.30;16.17;;;5.80;99.90;;;;;;5039688;28;20124;-59
2022/12/21 03:59:44;;;;;;;112.45;13.88;;;5.80;99.90;;;;;;5014645;28;20131;-60
2022/12/21 04:02:43;;;;;;;132.23;14.60;;;5.80;99.90;;;;;;5040257;28;20463;-59
2022/12/21 04:05:21;;;;;;;107.35;14.88;;;5.80;99.90;;;;;;5022616;28;20127;-58
2022/12/21 04:07:49;;;;;;;196.18;18.23;;;5.80;99.90;;;;;;5018365;28;20139;-59
2022/12/21 04:10:18;;;;;;;159.80;18.08;;;5.80;99.90;;;;;;5016642;28;20057;-59
2022/12/21 04:12:46;;;;;;;178.57;17.17;;;5.80;99.90;;;;;;5011280;28;20049;-59
2022/12/21 04:15:16;;;;;;;150.30;18.30;;;5.80;99.90;;;;;;5041491;28;20055;-58
2022/12/21 04:17:45;;;;;;;125.68;16.27;;;5.90;99.90;;;;;;5043220;28;20060;-59
2022/12/21 04:20:22;;;;;;;135.98;17.67;;;5.90;99.90;;;;;;5039428;28;20044;-58
2022/12/21 04:28:28;;;;;;;159.18;14.75;;;5.90;99.90;;;;;;5015135;28;20107;-59
2022/12/21 04:30:54;;;;;;;191.95;18.20;;;5.90;99.90;;;;;;5041589;28;21006;-60
2022/12/21 04:33:22;;;;;;;185.77;16.83;;;5.90;99.90;;;;;;5025269;28;20938;-59
2022/12/21 04:38:44;;;;;;;152.90;19.85;;;5.90;99.90;;;;;;4990840;28;20520;-59
2022/12/21 04:41:11;;;;;;;106.85;15.65;;;5.90;99.90;;;;;;5035647;28;20044;-60
2022/12/21 04:43:38;;;;;;;205.23;18.77;;;5.90;99.90;;;;;;5037984;28;20059;-59
2022/12/21 04:46:12;;;;;;;133.60;15.32;;;5.70;99.90;;;;;;5036275;28;20044;-59
2022/12/21 04:48:38;;;;;;;63.60;14.38;;;5.80;99.90;;;;;;5039171;28;20075;-59
2022/12/21 04:51:15;;;;;;;64.88;14.38;;;5.80;99.90;;;;;;5023234;28;20049;-59
2022/12/21 04:53:41;;;;;;;75.72;14.48;;;5.80;99.90;;;;;;5019526;28;20134;-59
2022/12/21 04:56:08;;;;;;;141.68;17.08;;;5.80;99.90;;;;;;5035613;28;20368;-59
2022/12/21 04:58:34;;;;;;;126.43;16.15;;;5.80;99.90;;;;;;5020772;28;20049;-59
2022/12/21 05:01:02;;;;;;;141.57;15.40;;;5.80;99.90;;;;;;5022311;28;20562;-59
2022/12/21 05:03:28;;;;;;;105.70;15.98;;;5.80;99.90;;;;;;5011042;28;20078;-60
2022/12/21 05:05:57;;;;;;;95.90;16.52;;;5.80;99.90;;;;;;5036099;28;20059;-59
2022/12/21 05:08:22;;;;;;;108.05;14.10;;;5.80;99.90;;;;;;5019486;28;20057;-60
2022/12/21 05:10:49;;;;;;;70.03;14.75;;;5.80;99.90;;;;;;5028806;28;20045;-59
2022/12/21 05:13:15;;;;;;;130.02;14.68;;;5.80;99.90;;;;;;5020478;28;20053;-59
2022/12/21 05:15:41;;;;;;;115.22;16.38;;;5.80;99.90;;;;;;5036725;28;20044;-59
2022/12/21 05:18:07;;;;;;;88.28;15.30;;;5.80;99.90;;;;;;5038827;28;20049;-59
2022/12/21 05:20:33;;;;;;;84.35;14.10;;;5.80;99.90;;;;;;5037764;28;20049;-59
2022/12/21 05:22:58;;;;;;;150.15;14.90;;;5.80;99.90;;;;;;5034696;28;20057;-59
2022/12/21 05:25:24;;;;;;;113.65;14.98;;;5.80;99.90;;;;;;5013759;28;20056;-59
2022/12/21 05:27:50;;;;;;;123.75;14.23;;;5.80;99.90;;;;;;5034458;28;21256;-60
2022/12/21 05:30:16;;;;;;;90.25;13.55;;;5.80;99.90;;;;;;5007215;28;20045;-60
2022/12/21 05:32:42;;;;;;;129.63;15.90;;;5.80;99.90;;;;;;5029366;28;20111;-59
2022/12/21 05:35:08;;;;;;;136.57;16.83;;;5.70;99.90;;;;;;5032220;28;20167;-59
2022/12/21 05:37:33;;;;;;;98.60;15.10;;;5.80;99.90;;;;;;5039006;28;20052;-59
2022/12/21 05:39:59;;;;;;;168.65;16.05;;;5.80;99.90;;;;;;5016445;28;22271;-58
2022/12/21 05:42:25;;;;;;;217.05;17.77;;;5.80;99.90;;;;;;5036173;28;20050;-59
2022/12/21 05:44:51;;;;;;;148.60;14.63;;;5.80;99.90;;;;;;5041455;28;20048;-60
2022/12/21 05:47:16;;;;;;;152.55;16.52;;;5.80;99.90;;;;;;5040523;28;20267;-59
2022/12/21 05:49:42;;;;;;;116.53;13.93;;;5.70;99.90;;;;;;5043248;28;20064;-59
2022/12/21 05:52:08;;;;;;;186.85;16.65;;;5.80;99.90;;;;;;5040169;28;20040;-59
2022/12/21 05:54:34;;;;;;;79.38;15.23;;;5.70;99.90;;;;;;5043519;28;20059;-59
2022/12/21 05:56:59;;;;;;;102.82;14.60;;;5.70;99.90;;;;;;5024105;28;20509;-59
2022/12/21 05:59:25;;;;;;;215.25;16.15;;;5.70;99.90;;;;;;5039599;28;20752;-60
2022/12/21 06:01:51;;;;;;;144.07;14.95;;;5.70;99.90;;;;;;5017514;28;20041;-59
2022/12/21 06:04:17;;;;;;;156.02;13.85;;;5.70;99.90;;;;;;5037451;28;21073;-60
2022/12/21 06:06:46;;;;;;;184.35;14.38;;;5.70;99.90;;;;;;5041679;28;20045;-60
2022/12/21 06:09:12;;;;;;;161.82;15.57;;;5.70;99.90;;;;;;5035474;28;20053;-60
2022/12/21 06:11:38;;;;;;;131.15;14.80;;;5.70;99.90;;;;;;5040340;28;20491;-60
2022/12/21 06:14:04;;;;;;;176.60;15.77;;;5.70;99.90;;;;;;5040184;28;20055;-60
2022/12/21 06:16:30;;;;;;;184.65;15.73;;;5.60;99.90;;;;;;5024279;28;20489;-60
2022/12/21 06:18:55;;;;;;;216.90;15.30;;;5.70;99.90;;;;;;5040624;28;20494;-59
2022/12/21 06:21:21;;;;;;;201.48;16.98;;;5.70;99.90;;;;;;5038987;28;20041;-59
2022/12/21 06:23:48;;;;;;;221.90;16.23;;;5.60;99.90;;;;;;5043921;28;20045;-59
2022/12/21 06:26:16;;;;;;;173.73;15.55;;;5.60;99.90;;;;;;5040038;28;21066;-59
2022/12/21 06:28:46;;;;;;;165.63;15.23;;;5.60;99.90;;;;;;5033609;28;20056;-59
2022/12/21 06:31:13;;;;;;;112.55;14.70;;;5.60;99.90;;;;;;4990460;28;21465;-59
2022/12/21 06:33:39;;;;;;;91.20;13.70;;;5.60;99.90;;;;;;5029194;28;20106;-60
2022/12/21 06:36:07;;;;;;;123.35;15.65;;;5.50;99.90;;;;;;5024663;28;21040;-59
2022/12/21 06:38:34;;;;;;;101.82;13.82;;;5.50;99.90;;;;;;5036368;28;20064;-59
2022/12/21 06:41:05;;;;;;;137.07;15.05;;;5.50;99.90;;;;;;5035752;28;20114;-59
2022/12/21 06:43:32;;;;;;;66.78;14.07;;;5.60;99.90;;;;;;5015576;28;20152;-59
2022/12/21 06:46:01;;;;;;;109.57;15.38;;;5.50;99.90;;;;;;5033113;28;20071;-60
2022/12/21 06:48:28;;;;;;;161.95;15.48;;;5.50;99.90;;;;;;5038392;28;20048;-59
2022/12/21 06:51:03;;;;;;;104.72;15.02;;;5.50;99.90;;;;;;5042862;28;20113;-59
2022/12/21 06:53:34;;;;;;;160.50;15.85;;;5.60;99.90;;;;;;5039667;28;20049;-59
2022/12/21 06:56:03;;;;;;;90.20;14.43;;;5.60;99.90;;;;;;5040955;28;20049;-60
2022/12/21 06:58:29;;;;;;;187.93;16.40;;;5.50;99.90;;;;;;5042623;28;20072;-59
2022/12/21 07:00:55;;;;;;;158.18;15.82;;;5.60;99.90;;;;;;5024943;28;20056;-60
2022/12/21 07:03:22;;;;;;;153.63;16.25;;;5.60;99.90;;;;;;5044707;28;20106;-60
2022/12/21 07:05:49;;;;;;;124.78;16.52;;;5.50;99.90;;;;;;5035104;28;20049;-60
2022/12/21 07:08:16;;;;;;;77.80;13.88;;;5.50;99.90;;;;;;5023750;28;20082;-59
2022/12/21 07:10:42;;;;;;;128.73;16.98;;;5.50;99.90;;;;;;5035060;28;21590;-59
2022/12/21 07:13:07;;;;;;;145.13;17.08;;;5.60;99.90;;;;;;5037158;28;20045;-58
2022/12/21 07:15:34;;;;;;;145.93;16.45;;;5.50;99.90;;;;;;5002119;28;20048;-60
2022/12/21 07:18:01;;;;;;;144.02;16.50;;;5.50;99.90;;;;;;5029657;28;20162;-59
2022/12/21 07:20:26;;;;;;;143.02;18.15;;;5.50;99.90;;;;;;5016900;28;20045;-59
2022/12/21 07:22:52;;;;;;;127.38;15.98;;;5.60;99.90;;;;;;5027549;28;20041;-59
2022/12/21 07:25:18;;;;;;;121.00;16.55;;;5.50;99.90;;;;;;5027744;28;20140;-59
2022/12/21 07:27:44;;;;;;;118.85;15.38;;;5.50;99.90;;;;;;5047771;28;20055;-59
2022/12/21 07:30:11;;;;;;;147.27;16.88;;;5.50;99.90;;;;;;5028369;28;20486;-59
2022/12/21 07:32:36;;;;;;;143.82;16.90;;;5.50;99.90;;;;;;5037548;28;20415;-60
2022/12/21 07:35:02;;;;;;;147.77;16.60;;;5.50;99.90;;;;;;5036250;28;20053;-60
2022/12/21 07:37:28;;;;;;;157.85;17.13;;;5.50;99.90;;;;;;5031655;28;20102;-60
2022/12/21 07:39:54;;;;;;;170.30;18.13;;;5.50;99.90;;;;;;5029933;28;20594;-59
2022/12/21 07:42:19;;;;;;;158.30;18.55;;;5.50;99.90;;;;;;5042430;28;20159;-59
2022/12/21 07:44:45;;;;;;;177.73;19.25;;;5.60;99.90;;;;;;5039211;28;20048;-60
2022/12/21 07:47:11;;;;;;;176.13;21.35;;;5.60;99.90;;;;;;5022978;28;20120;-59
2022/12/21 07:49:37;;;;;;;110.53;18.98;;;5.60;99.90;;;;;;5023949;28;20450;-59
2022/12/21 07:52:03;;;;;;;215.68;23.30;;;5.60;99.90;;;;;;5022121;28;20560;-60
2022/12/21 07:54:29;;;;;;;159.95;21.58;;;5.60;99.90;;;;;;5018144;28;20087;-60
2022/12/21 07:56:54;;;;;;;135.80;22.58;;;5.70;99.90;;;;;;5045230;28;20036;-59
2022/12/21 07:59:20;;;;;;;175.02;23.10;;;5.70;99.90;;;;;;5028187;28;20051;-60
2022/12/21 08:01:46;;;;;;;155.02;24.63;;;5.70;99.90;;;;;;5045521;28;20143;-59
2022/12/21 08:04:12;;;;;;;170.40;26.48;;;5.70;99.90;;;;;;5011757;28;20052;-60
2022/12/21 08:06:38;;;;;;;154.18;25.63;;;5.80;99.90;;;;;;5046822;28;20044;-60
2022/12/21 08:09:04;;;;;;;180.13;26.40;;;5.80;99.90;;;;;;5046038;28;20585;-60
2022/12/21 08:11:30;;;;;;;110.28;26.38;;;5.80;99.90;;;;;;5025487;28;20041;-60
2022/12/21 08:13:56;;;;;;;169.27;28.83;;;5.80;99.90;;;;;;5043349;28;20040;-60
2022/12/21 08:16:22;;;;;;;137.10;27.73;;;5.80;99.90;;;;;;5040821;28;20049;-59
2022/12/21 08:18:48;;;;;;;192.90;31.23;;;5.80;99.90;;;;;;5047130;28;20160;-60
2022/12/21 08:21:15;;;;;;;144.00;28.20;;;5.90;99.90;;;;;;5043764;28;20170;-59
2022/12/21 08:23:42;;;;;;;161.55;30.40;;;5.90;99.90;;;;;;5045240;28;20055;-60
2022/12/21 08:26:10;;;;;;;159.40;29.65;;;5.80;99.90;;;;;;5019047;28;20060;-59
2022/12/21 08:28:36;;;;;;;133.95;27.38;;;5.90;99.90;;;;;;5041382;28;20060;-60
2022/12/21 08:31:06;;;;;;;152.68;28.67;;;5.90;99.90;;;;;;5023529;28;20283;-60
2022/12/21 08:33:32;;;;;;;154.57;27.73;;;5.90;99.90;;;;;;5023656;28;20399;-58
2022/12/21 08:35:57;;;;;;;145.30;29.00;;;5.90;99.90;;;;;;5021898;28;20041;-60
2022/12/21 08:38:24;;;;;;;129.80;26.63;;;5.90;99.90;;;;;;5040444;28;20059;-60
2022/12/21 08:40:51;;;;;;;164.10;28.13;;;5.90;99.90;;;;;;5039340;28;20410;-59
2022/12/21 08:43:18;;;;;;;126.00;28.08;;;5.90;99.90;;;;;;5042132;28;20049;-59
2022/12/21 08:45:44;;;;;;;160.65;28.50;;;5.90;99.90;;;;;;5024785;28;20514;-60
2022/12/21 08:48:10;;;;;;;194.63;31.70;;;6.00;99.90;;;;;;5044708;28;20106;-60
2022/12/21 08:50:36;;;;;;;137.93;28.65;;;6.00;99.90;;;;;;5043907;28;20041;-59
2022/12/21 08:53:02;;;;;;;146.90;28.67;;;6.00;99.90;;;;;;5039076;28;20072;-59
2022/12/21 08:55:30;;;;;;;120.45;28.33;;;6.00;99.90;;;;;;5023162;28;20076;-60
2022/12/21 08:57:56;;;;;;;138.60;28.90;;;6.00;99.90;;;;;;5028428;28;20036;-59
2022/12/21 09:00:23;;;;;;;107.03;28.75;;;6.10;99.90;;;;;;5027827;28;20083;-60
2022/12/21 09:02:49;;;;;;;102.30;28.50;;;6.10;99.90;;;;;;5026920;28;20068;-59
2022/12/21 09:05:15;;;;;;;120.53;32.30;;;6.10;99.90;;;;;;5044131;28;20140;-59
2022/12/21 09:07:41;;;;;;;124.85;34.60;;;6.10;99.90;;;;;;5026370;28;21008;-59
2022/12/21 09:10:07;;;;;;;125.85;32.00;;;6.20;99.90;;;;;;5045380;28;20045;-59
2022/12/21 09:12:33;;;;;;;130.85;31.80;;;6.30;99.90;;;;;;5045146;28;20053;-59
2022/12/21 09:14:59;;;;;;;116.28;33.75;;;6.30;99.90;;;;;;5041178;28;20060;-60
2022/12/21 09:17:25;;;;;;;100.32;30.92;;;6.30;99.90;;;;;;5044978;28;20037;-60
2022/12/21 09:19:51;;;;;;;104.65;30.83;;;6.30;99.90;;;;;;5043138;28;20080;-60
2022/12/21 09:22:16;;;;;;;111.22;30.40;;;6.40;99.90;;;;;;5045237;28;20398;-61
2022/12/21 09:24:42;;;;;;;106.30;31.25;;;6.40;99.90;;;;;;5046012;28;20045;-59
2022/12/21 09:27:08;;;;;;;110.97;29.50;;;6.50;99.90;;;;;;5042898;28;20163;-58
2022/12/21 09:29:34;;;;;;;108.78;32.42;;;6.50;99.90;;;;;;5044719;28;20134;-59
2022/12/21 09:31:59;;;;;;;108.88;32.15;;;6.50;99.90;;;;;;5045427;28;20041;-59
2022/12/21 09:34:25;;;;;;;95.50;32.17;;;6.60;99.90;;;;;;5017692;28;20428;-60
2022/12/21 09:36:51;;;;;;;97.57;33.42;;;6.60;99.90;;;;;;5044748;28;20029;-60
2022/12/21 09:39:17;;;;;;;84.18;27.55;;;6.60;99.90;;;;;;5010524;28;20091;-60
2022/12/21 09:41:58;;;;;;;75.90;26.65;;;6.60;99.90;;;;;;5039086;28;20059;-59
2022/12/21 09:44:39;;;;;;;80.32;26.52;;;6.60;99.90;;;;;;5013166;28;20433;-59
2022/12/21 09:47:06;;;;;;;81.20;26.85;;;6.60;99.90;;;;;;5026502;28;20136;-60
2022/12/21 09:49:57;;;;;;;87.07;27.00;;;6.60;99.90;;;;;;5044859;28;20370;-59
2022/12/21 09:52:31;;;;;;;76.50;26.48;;;6.60;99.90;;;;;;5022056;28;22151;-60
2022/12/21 09:55:11;;;;;;;75.78;24.88;;;6.60;99.90;;;;;;5044655;28;20033;-60
2022/12/21 09:57:37;;;;;;;81.05;26.52;;;6.60;99.90;;;;;;5044208;28;20123;-60
2022/12/21 10:00:27;;;;;;;82.75;26.98;;;6.60;99.90;;;;;;5044404;28;20132;-59
2022/12/21 10:03:23;;;;;;;80.38;26.08;;;6.60;99.90;;;;;;5040360;28;20061;-60
2022/12/21 10:06:10;;;;;;;89.22;26.20;;;6.70;99.90;;;;;;5039198;28;20076;-60
2022/12/21 10:08:55;;;;;;;84.22;28.33;;;6.70;99.90;;;;;;5012556;28;20075;-60
2022/12/21 10:11:43;;;;;;;78.72;27.92;;;6.70;99.90;;;;;;5020818;28;20052;-59
2022/12/21 10:14:18;;;;;;;88.97;30.15;;;6.80;99.90;;;;;;5035623;28;20048;-59
2022/12/21 10:17:34;;;;;;;88.32;29.48;;;6.80;99.90;;;;;;5021962;28;20073;-59
2022/12/21 10:20:37;;;;;;;83.72;29.50;;;6.90;99.90;;;;;;4923579;29;20502;-59
2022/12/21 10:23:16;;;;;;;79.78;30.92;;;7.00;99.90;;;;;;5001132;28;20056;-59
2022/12/21 10:25:46;;;;;;;90.05;32.20;;;7.00;99.90;;;;;;5042021;28;20123;-59
2022/12/21 10:28:43;;;;;;;92.88;31.55;;;7.00;99.90;;;;;;5043140;28;20127;-59
2022/12/21 10:31:12;;;;;;;91.40;31.90;;;7.00;99.90;;;;;;5021033;28;20053;-60
2022/12/21 10:33:41;;;;;;;79.03;31.27;;;7.00;99.90;;;;;;5048527;28;20052;-60
2022/12/21 10:36:17;;;;;;;80.03;32.08;;;7.00;99.90;;;;;;5046146;28;20051;-60
2022/12/21 10:38:44;;;;;;;78.13;31.00;;;7.10;99.90;;;;;;5043648;28;20064;-60
2022/12/21 10:41:19;;;;;;;79.65;31.08;;;7.00;99.90;;;;;;5016753;28;20080;-59
2022/12/21 10:43:48;;;;;;;85.03;32.47;;;7.10;99.90;;;;;;5042783;28;20044;-59
2022/12/21 10:46:17;;;;;;;77.05;32.40;;;7.10;99.90;;;;;;5022150;28;20091;-60
2022/12/21 10:48:48;;;;;;;82.95;33.38;;;7.00;99.90;;;;;;5043239;28;20052;-59
2022/12/21 10:51:25;;;;;;;74.00;32.88;;;7.00;99.90;;;;;;5042249;28;20049;-59
2022/12/21 10:54:00;;;;;;;77.47;35.92;;;7.10;99.90;;;;;;5024743;28;20045;-60
2022/12/21 10:56:28;;;;;;;62.42;28.40;;;7.10;99.90;;;;;;5026365;28;20056;-58
2022/12/21 10:58:55;;;;;;;75.07;30.52;;;7.20;99.90;;;;;;5047131;28;20048;-60
2022/12/21 11:01:26;;;;;;;66.07;30.13;;;7.20;99.90;;;;;;5046962;28;20068;-59
2022/12/21 11:04:16;;;;;;;61.53;30.50;;;7.30;99.90;;;;;;5047751;28;20040;-59
2022/12/21 11:07:05;;;;;;;68.10;29.63;;;7.40;99.90;;;;;;5029002;28;20049;-60
2022/12/21 11:09:33;;;;;;;59.78;26.95;;;7.50;99.90;;;;;;5006161;28;20089;-60
2022/12/21 11:12:24;;;;;;;65.75;29.27;;;7.60;99.90;;;;;;5005525;28;20062;-60
2022/12/21 11:14:52;;;;;;;53.60;26.83;;;7.60;99.90;;;;;;5007415;28;20813;-60
2022/12/21 11:17:32;;;;;;;56.10;26.42;;;7.60;99.90;;;;;;5001250;28;20038;-59
2022/12/21 11:20:05;;;;;;;56.88;26.73;;;7.60;99.90;;;;;;5004600;28;20046;-60
2022/12/21 11:22:32;;;;;;;53.97;26.73;;;7.60;99.90;;;;;;5007213;28;20044;-59
2022/12/21 11:24:59;;;;;;;64.28;28.50;;;7.60;99.90;;;;;;5005840;28;20081;-60
2022/12/21 11:27:33;;;;;;;59.22;28.63;;;7.60;99.90;;;;;;4995321;28;20053;-60
2022/12/21 11:30:16;;;;;;;58.20;28.55;;;7.70;99.90;;;;;;5004465;28;20182;-59
2022/12/21 11:32:45;;;;;;;57.78;24.92;;;7.70;99.90;;;;;;5005443;28;20041;-59
2022/12/21 11:35:18;;;;;;;57.88;26.67;;;7.70;99.90;;;;;;5005991;28;20431;-60
2022/12/21 11:37:46;;;;;;;66.50;26.55;;;7.70;99.90;;;;;;4994045;28;20107;-60
2022/12/21 11:40:21;;;;;;;52.63;23.77;;;7.70;99.90;;;;;;4993792;28;20092;-60
2022/12/21 11:42:59;;;;;;;59.17;22.40;;;7.70;99.90;;;;;;4992938;28;20097;-59
2022/12/21 11:45:38;;;;;;;51.65;23.13;;;7.70;99.90;;;;;;5002319;28;20057;-59
2022/12/21 11:48:30;;;;;;;53.03;22.55;;;7.70;99.90;;;;;;4994219;28;20089;-59
2022/12/21 11:51:20;;;;;;;62.15;24.40;;;7.60;99.90;;;;;;4993433;28;20050;-59
2022/12/21 11:54:01;;;;;;;59.85;22.40;;;7.60;99.90;;;;;;4982022;28;20056;-59
2022/12/21 11:56:47;;;;;;;57.78;23.88;;;7.60;99.90;;;;;;4978633;28;20054;-59
2022/12/21 11:59:40;;;;;;;59.20;24.15;;;7.70;99.90;;;;;;5006575;28;20095;-59
2022/12/21 12:02:36;;;;;;;61.22;21.90;;;7.70;99.90;;;;;;5005900;28;20053;-60
2022/12/21 12:05:39;;;;;;;48.20;20.95;;;7.70;99.90;;;;;;5006181;28;20081;-59
2022/12/21 12:08:37;;;;;;;52.95;21.45;;;7.70;99.90;;;;;;5014908;28;20065;-59
2022/12/21 12:11:24;;;;;;;52.83;19.50;;;7.70;99.90;;;;;;5016474;28;20067;-60
2022/12/21 12:13:58;;;;;;;53.00;19.98;;;7.70;99.90;;;;;;5021890;28;20045;-59
2022/12/21 12:16:27;;;;;;;47.70;18.35;;;7.70;99.90;;;;;;5022068;28;20057;-60
2022/12/21 12:19:06;;;;;;;41.65;16.90;;;7.80;99.90;;;;;;5019646;28;20088;-59
2022/12/21 12:22:01;;;;;;;44.30;17.27;;;7.80;99.90;;;;;;5022300;28;20510;-59
2022/12/21 12:24:40;;;;;;;44.28;16.58;;;7.90;99.90;;;;;;5021874;28;20073;-59
2022/12/21 12:27:05;;;;;;;41.30;16.48;;;7.90;99.90;;;;;;5017686;28;20046;-60
2022/12/21 12:29:46;;;;;;;39.08;15.98;;;7.90;99.90;;;;;;4999828;28;20049;-59
2022/12/21 12:32:44;;;;;;;41.17;15.82;;;7.90;99.90;;;;;;5023621;28;20060;-59
2022/12/21 12:35:31;;;;;;;41.65;15.57;;;7.90;99.90;;;;;;5021872;28;21145;-60
2022/12/21 12:38:35;;;;;;;44.35;15.80;;;8.00;99.90;;;;;;5016317;28;20138;-60
2022/12/21 12:41:22;;;;;;;;;;;8.00;99.90;;;;;;5019057;28;20049;-60
2022/12/21 12:43:59;;;;;;;41.50;16.73;;;8.00;99.90;;;;;;5013452;28;20306;-59
2022/12/21 12:47:04;;;;;;;44.90;18.50;;;8.00;99.90;;;;;;5024706;28;20518;-60
2022/12/21 12:50:13;;;;;;;49.47;17.40;;;8.10;99.90;;;;;;4985548;28;20601;-59
2022/12/21 12:53:01;;;;;;;40.95;14.90;;;8.10;99.90;;;;;;5028100;28;20428;-60
2022/12/21 12:55:36;;;;;;;45.70;15.48;;;8.20;99.90;;;;;;5025348;28;20932;-59
2022/12/21 12:58:23;;;;;;;47.35;16.75;;;8.20;99.90;;;;;;5019225;28;20041;-60
2022/12/21 13:01:07;;;;;;;40.55;16.63;;;8.30;99.90;;;;;;5020623;28;20045;-60
2022/12/21 13:03:38;;;;;;;39.83;16.67;;;8.30;99.90;;;;;;5018412;28;20046;-60
2022/12/21 13:06:14;;;;;;;46.20;17.30;;;8.30;99.90;;;;;;5019810;28;20077;-59